Time;durP1;ratioP1;P1;durP2;ratioP2;P2;SDS_P1;SDS_P2;PMS_P1;PMS_P2;Temp;Humidity;BMP_temperature;BMP_pressure;BME280_temperature;BME280_humidity;BME280_pressure;Samples;Min_cycle;Max_cycle;Signal;HPM_P1;HPM_P2
2023/07/21 00:01:43;;;;;;;2.20;2.00;;;;;;;19.36;76.45;96156.53;5042751;28;20200;-64
2023/07/21 00:04:09;;;;;;;3.40;2.35;;;;;;;19.35;78.45;96152.19;5044020;28;20195;-64
2023/07/21 00:06:35;;;;;;;3.15;2.22;;;;;;;19.25;78.30;96151.81;5045586;28;20200;-68
2023/07/21 00:09:06;;;;;;;2.35;2.25;;;;;;;19.21;79.08;96154.09;5063881;28;20863;-65
2023/07/21 00:11:32;;;;;;;4.53;2.35;;;;;;;19.21;79.92;96158.63;5063322;28;20176;-64
2023/07/21 00:13:59;;;;;;;2.63;2.30;;;;;;;19.18;78.19;96151.00;5053738;28;20200;-64
2023/07/21 00:16:29;;;;;;;3.22;2.35;;;;;;;19.20;78.26;96154.31;5045774;28;20231;-65
2023/07/21 00:18:56;;;;;;;2.53;2.30;;;;;;;19.11;78.64;96160.91;5045475;28;20199;-64
2023/07/21 00:21:24;;;;;;;2.25;2.00;;;;;;;19.08;79.90;96150.59;5045893;28;20655;-63
2023/07/21 00:23:51;;;;;;;2.25;2.10;;;;;;;19.00;81.46;96148.13;5044701;28;20357;-64
2023/07/21 00:26:19;;;;;;;2.97;2.65;;;;;;;18.97;80.69;96153.91;5044720;28;20306;-64
2023/07/21 00:28:47;;;;;;;3.72;2.10;;;;;;;18.98;79.82;96155.56;5043379;28;20223;-64
2023/07/21 00:31:14;;;;;;;2.22;2.13;;;;;;;18.93;79.71;96153.50;5044130;28;20200;-64
2023/07/21 00:33:41;;;;;;;2.72;2.20;;;;;;;18.87;80.50;96147.13;5043990;28;20294;-64
2023/07/21 00:36:12;;;;;;;3.15;2.17;;;;;;;18.83;82.47;96148.56;5045582;28;20218;-63
2023/07/21 00:38:40;;;;;;;2.80;2.60;;;;;;;18.82;80.91;96141.53;5043596;28;20195;-65
2023/07/21 00:41:07;;;;;;;3.40;2.25;;;;;;;18.75;80.89;96146.06;5043671;28;20242;-63
2023/07/21 00:43:35;;;;;;;2.30;2.10;;;;;;;18.71;81.67;96144.84;5041608;28;20277;-64
2023/07/21 00:46:02;;;;;;;3.67;2.40;;;;;;;18.71;82.54;96144.84;5043302;28;20317;-64
2023/07/21 00:48:29;;;;;;;3.90;2.35;;;;;;;18.76;80.80;96146.91;5042603;28;20206;-64
2023/07/21 00:50:57;;;;;;;2.22;2.13;;;;;;;18.71;81.34;96144.84;5043620;28;20231;-64
2023/07/21 00:53:24;;;;;;;4.57;2.22;;;;;;;18.69;80.96;96141.53;5042873;28;20209;-64
2023/07/21 00:55:51;;;;;;;5.63;2.22;;;;;;;18.68;80.54;96133.72;5042246;28;20207;-64
2023/07/21 00:58:22;;;;;;;2.50;2.30;;;;;;;18.65;79.59;96140.31;5040929;28;20210;-64
2023/07/21 01:00:50;;;;;;;5.97;2.50;;;;;;;18.67;79.50;96142.78;5042054;28;20220;-64
2023/07/21 01:03:17;;;;;;;3.80;2.60;;;;;;;18.67;82.30;96137.44;5043035;28;20238;-64
2023/07/21 01:05:48;;;;;;;2.05;1.95;;;;;;;18.58;80.41;96128.75;5043115;28;20214;-63
2023/07/21 01:08:15;;;;;;;2.15;2.05;;;;;;;18.56;81.53;96125.47;5042183;28;20208;-64
2023/07/21 01:10:44;;;;;;;4.00;2.35;;;;;;;18.61;79.80;96122.16;5041570;28;20250;-64
2023/07/21 01:13:11;;;;;;;2.47;1.85;;;;;;;18.52;78.45;96128.75;5041889;28;20199;-63
2023/07/21 01:15:43;;;;;;;3.53;1.85;;;;;;;18.53;81.24;96119.72;5042072;28;20239;-64
2023/07/21 01:18:13;;;;;;;2.55;1.98;;;;;;;18.51;82.25;96122.56;5042359;28;20207;-64
2023/07/21 01:20:39;;;;;;;2.95;2.30;;;;;;;18.51;81.96;96119.91;5044426;28;20304;-64
2023/07/21 01:23:14;;;;;;;2.63;2.08;;;;;;;18.56;79.76;96112.09;5044539;28;20219;-63
2023/07/21 01:25:43;;;;;;;5.20;2.40;;;;;;;18.61;81.41;96120.31;5048901;28;20666;-63
2023/07/21 01:28:11;;;;;;;3.38;2.25;;;;;;;18.61;79.87;96127.53;5047752;28;20234;-64
2023/07/21 01:30:38;;;;;;;2.72;2.00;;;;;;;18.59;81.49;96124.22;5048957;28;20226;-65
2023/07/21 01:33:06;;;;;;;2.22;2.03;;;;;;;18.62;81.79;96124.66;5048345;28;20203;-64
2023/07/21 01:35:33;;;;;;;2.70;2.38;;;;;;;18.67;82.12;96130.19;5049327;28;20214;-64
2023/07/21 01:38:00;;;;;;;2.05;1.95;;;;;;;18.68;80.33;96145.25;5050324;28;20211;-64
2023/07/21 01:40:26;;;;;;;2.08;1.98;;;;;;;18.71;79.13;96138.66;5053660;28;20206;-64
2023/07/21 01:42:56;;;;;;;2.00;1.90;;;;;;;18.75;79.57;96124.63;5052910;28;20231;-65
2023/07/21 01:45:23;;;;;;;3.28;2.20;;;;;;;18.70;80.10;96119.09;5058003;28;20219;-65
2023/07/21 01:47:51;;;;;;;3.03;1.88;;;;;;;18.70;82.08;96111.06;5052743;28;20199;-65
2023/07/21 01:50:18;;;;;;;2.90;2.63;;;;;;;18.71;80.80;96111.84;5052623;28;20203;-64
2023/07/21 01:52:48;;;;;;;2.17;1.98;;;;;;;18.69;80.87;96104.06;5052480;28;20237;-64
2023/07/21 01:55:18;;;;;;;4.35;2.30;;;;;;;18.71;80.43;96101.97;5051995;28;20287;-64
2023/07/21 01:57:49;;;;;;;2.50;2.30;;;;;;;18.68;81.56;96099.72;5053252;28;20199;-64
2023/07/21 02:00:22;;;;;;;2.40;2.20;;;;;;;18.67;79.87;96084.66;5051532;28;20226;-64
2023/07/21 02:02:49;;;;;;;2.45;2.25;;;;;;;18.66;78.77;96085.72;5050812;28;20270;-63
2023/07/21 02:05:19;;;;;;;2.10;2.00;;;;;;;18.57;76.64;96092.28;5051528;28;20582;-64
2023/07/21 02:07:46;;;;;;;2.38;2.10;;;;;;;18.55;79.21;96091.69;5048522;28;20199;-65
2023/07/21 02:10:13;;;;;;;3.10;2.20;;;;;;;18.46;81.04;96092.88;5049925;28;20268;-64
2023/07/21 02:12:39;;;;;;;3.15;2.20;;;;;;;18.41;78.62;96090.00;5051479;28;20207;-63
2023/07/21 02:15:07;;;;;;;2.63;2.42;;;;;;;18.46;78.95;96092.88;5053813;28;20222;-67
2023/07/21 02:17:35;;;;;;;3.28;2.22;;;;;;;18.38;78.85;96090.41;5070293;28;20176;-64
2023/07/21 02:20:07;;;;;;;3.13;1.77;;;;;;;18.35;80.86;96096.19;5060337;28;20203;-65
2023/07/21 02:22:34;;;;;;;3.13;1.80;;;;;;;18.36;80.18;96092.47;5057958;28;20200;-64
2023/07/21 02:25:00;;;;;;;2.45;2.10;;;;;;;18.34;80.20;96089.16;5052760;28;20207;-65
2023/07/21 02:27:27;;;;;;;2.40;2.08;;;;;;;18.28;82.58;96088.13;5053299;28;20195;-64
2023/07/21 02:29:58;;;;;;;3.45;2.30;;;;;;;18.25;80.84;96096.56;5052544;28;20199;-64
2023/07/21 02:32:28;;;;;;;4.20;2.38;;;;;;;18.23;81.27;96092.44;5051641;28;20203;-65
2023/07/21 02:34:56;;;;;;;3.92;2.25;;;;;;;18.14;76.88;96093.69;5049259;28;20207;-64
2023/07/21 02:37:23;;;;;;;1.77;1.67;;;;;;;18.22;79.93;96085.44;5050270;28;20203;-64
2023/07/21 02:39:54;;;;;;;2.33;1.77;;;;;;;18.20;80.38;96084.84;5051064;28;20214;-64
2023/07/21 02:42:22;;;;;;;2.20;2.00;;;;;;;18.16;78.11;96086.25;5048827;28;20214;-63
2023/07/21 02:44:49;;;;;;;3.20;2.05;;;;;;;18.15;81.50;96088.13;5048760;28;20219;-64
2023/07/21 02:47:17;;;;;;;2.90;1.95;;;;;;;18.09;80.11;96088.09;5045408;28;20515;-64
2023/07/21 02:49:44;;;;;;;3.17;2.08;;;;;;;18.06;79.42;96086.66;5045164;28;20218;-64
2023/07/21 02:52:14;;;;;;;1.83;1.73;;;;;;;17.99;81.81;96090.34;5045283;28;20225;-64
2023/07/21 02:54:40;;;;;;;2.83;2.05;;;;;;;17.92;81.73;96089.50;5045035;28;20208;-65
2023/07/21 02:57:07;;;;;;;2.03;1.92;;;;;;;17.88;80.75;96089.09;5045159;28;20210;-63
2023/07/21 02:59:35;;;;;;;3.28;1.80;;;;;;;17.90;80.83;96079.81;5045263;28;20298;-64
2023/07/21 03:02:01;;;;;;;3.88;1.92;;;;;;;17.82;80.44;96079.19;5046082;28;20204;-65
2023/07/21 03:04:28;;;;;;;2.17;2.08;;;;;;;17.85;79.21;96084.94;5044714;28;20242;-64
2023/07/21 03:06:55;;;;;;;2.15;1.95;;;;;;;17.71;80.61;96087.81;5044635;28;20246;-64
2023/07/21 03:09:23;;;;;;;3.97;1.73;;;;;;;17.67;81.36;96079.34;5043986;28;20214;-64
2023/07/21 03:11:50;;;;;;;4.03;2.30;;;;;;;17.65;80.40;96084.06;5044879;28;20195;-63
2023/07/21 03:14:16;;;;;;;2.10;1.95;;;;;;;17.70;79.11;96089.66;5043830;28;20203;-64
2023/07/21 03:16:42;;;;;;;3.20;2.00;;;;;;;17.63;81.12;96086.13;5042819;28;20234;-64
2023/07/21 03:19:09;;;;;;;2.83;1.67;;;;;;;17.59;81.45;96090.22;5043543;28;20204;-63
2023/07/21 03:21:36;;;;;;;3.67;1.88;;;;;;;17.64;80.28;96087.75;5043591;28;20291;-64
2023/07/21 03:24:02;;;;;;;5.15;2.50;;;;;;;17.62;82.33;96087.16;5044434;28;20231;-64
2023/07/21 03:26:30;;;;;;;4.10;2.25;;;;;;;17.64;81.18;96087.75;5044105;28;20290;-63
2023/07/21 03:28:57;;;;;;;1.92;1.80;;;;;;;17.63;81.26;96080.78;5043254;28;20290;-64
2023/07/21 03:31:23;;;;;;;2.30;2.08;;;;;;;17.66;82.35;96080.38;5043387;28;20835;-64
2023/07/21 03:33:51;;;;;;;2.50;2.20;;;;;;;17.65;81.29;96084.06;5043072;28;20199;-64
2023/07/21 03:36:20;;;;;;;2.35;1.95;;;;;;;17.64;81.97;96082.41;5044426;28;20212;-64
2023/07/21 03:38:47;;;;;;;2.90;2.22;;;;;;;17.70;80.71;96083.47;5045704;28;20203;-65
2023/07/21 03:41:13;;;;;;;3.08;2.00;;;;;;;17.69;80.66;96079.97;5043890;28;20204;-64
2023/07/21 03:43:43;;;;;;;4.05;1.88;;;;;;;17.67;84.36;96076.69;5044816;28;20548;-64
2023/07/21 03:46:10;;;;;;;2.45;2.30;;;;;;;17.66;83.14;96080.38;5042390;28;20210;-64
2023/07/21 03:48:37;;;;;;;1.88;1.77;;;;;;;17.68;83.21;96083.66;5043618;28;20211;-64
2023/07/21 03:51:06;;;;;;;3.58;2.13;;;;;;;17.64;84.63;96089.63;5043205;28;20261;-64
2023/07/21 03:53:33;;;;;;;3.53;2.15;;;;;;;17.67;82.29;96090.06;5044158;28;20210;-64
2023/07/21 03:56:00;;;;;;;2.42;1.85;;;;;;;17.59;81.63;96084.88;5044228;28;20279;-65
2023/07/21 03:58:26;;;;;;;6.13;2.60;;;;;;;17.56;85.56;96087.09;5046038;28;21015;-64
2023/07/21 04:00:55;;;;;;;2.78;2.10;;;;;;;17.54;85.66;96081.94;5045340;28;20254;-63
2023/07/21 04:03:24;;;;;;;2.30;1.95;;;;;;;17.50;84.02;96080.69;5043968;28;20251;-64
2023/07/21 04:05:51;;;;;;;2.00;1.90;;;;;;;17.50;83.24;96069.97;5045566;28;20199;-64
2023/07/21 04:08:18;;;;;;;2.17;2.00;;;;;;;17.50;86.39;96067.31;5046209;28;20203;-65
2023/07/21 04:10:46;;;;;;;2.60;2.08;;;;;;;17.56;85.35;96063.88;5046284;28;20287;-63
2023/07/21 04:13:13;;;;;;;2.25;2.00;;;;;;;17.51;84.59;96060.94;5045952;28;20203;-64
2023/07/21 04:15:39;;;;;;;2.50;2.20;;;;;;;17.43;85.30;96061.13;5046483;28;20301;-64
2023/07/21 04:18:10;;;;;;;2.92;2.28;;;;;;;17.47;84.47;96065.03;5049689;28;20208;-64
2023/07/21 04:20:37;;;;;;;2.55;2.10;;;;;;;17.41;85.52;96072.03;5045472;28;20207;-64
2023/07/21 04:23:03;;;;;;;2.60;2.10;;;;;;;17.45;84.68;96075.13;5043885;28;20203;-64
2023/07/21 04:25:32;;;;;;;3.85;2.28;;;;;;;17.44;84.62;96065.44;5056014;28;20211;-64
2023/07/21 04:27:58;;;;;;;2.45;2.20;;;;;;;17.43;85.95;96058.44;5066898;28;20208;-64
2023/07/21 04:30:25;;;;;;;2.03;1.75;;;;;;;17.47;86.15;96064.22;5055801;28;20207;-64
2023/07/21 04:32:52;;;;;;;2.40;2.20;;;;;;;17.46;87.18;96065.25;5046624;28;20650;-63
2023/07/21 04:35:21;;;;;;;3.40;2.08;;;;;;;17.51;84.64;96060.13;5045820;28;20298;-66
2023/07/21 04:37:50;;;;;;;4.45;2.40;;;;;;;17.52;86.43;96059.09;5045690;28;20214;-64
2023/07/21 04:40:19;;;;;;;2.22;2.00;;;;;;;17.53;88.48;96063.44;5044793;28;20227;-64
2023/07/21 04:42:46;;;;;;;2.60;2.17;;;;;;;17.56;88.16;96058.53;5044820;28;20289;-64
2023/07/21 04:45:13;;;;;;;4.32;2.58;;;;;;;17.65;88.94;96068.03;5043924;28;20219;-63
2023/07/21 04:47:43;;;;;;;2.28;2.17;;;;;;;17.78;87.96;96069.94;5043378;28;20207;-65
2023/07/21 04:50:10;;;;;;;4.15;2.58;;;;;;;17.85;90.47;96078.78;5043612;28;20227;-64
2023/07/21 04:52:38;;;;;;;2.40;2.00;;;;;;;17.88;91.46;96084.56;5043320;28;20215;-64
2023/07/21 04:55:08;;;;;;;3.72;2.40;;;;;;;17.96;88.98;96078.19;5043966;28;20200;-66
2023/07/21 04:57:35;;;;;;;3.70;2.33;;;;;;;17.98;86.39;96075.31;5042641;28;20230;-64
2023/07/21 05:00:02;;;;;;;3.55;2.45;;;;;;;18.06;88.18;96080.50;5042026;28;20195;-66
2023/07/21 05:02:29;;;;;;;2.72;2.30;;;;;;;18.18;89.12;96089.53;5043429;28;20199;-64
2023/07/21 05:04:58;;;;;;;3.00;2.28;;;;;;;18.26;91.76;96100.06;5043031;28;20281;-66
2023/07/21 05:07:26;;;;;;;2.50;2.13;;;;;;;18.30;89.75;96104.00;5042637;28;20202;-66
2023/07/21 05:09:55;;;;;;;3.58;2.38;;;;;;;18.33;91.04;96087.50;5025883;28;20204;-63
2023/07/21 05:12:24;;;;;;;2.40;2.22;;;;;;;18.36;90.62;96093.28;5040757;28;20238;-64
2023/07/21 05:14:50;;;;;;;2.92;2.20;;;;;;;18.46;91.96;96084.84;5041478;28;20268;-63
2023/07/21 05:17:18;;;;;;;4.88;3.97;;;;;;;18.45;89.17;96095.78;5041443;28;20232;-66
2023/07/21 05:19:44;;;;;;;4.40;4.00;;;;;;;18.49;90.23;96097.00;5042068;28;20217;-65
2023/07/21 05:22:11;;;;;;;2.78;2.58;;;;;;;18.49;88.46;96105.88;5041691;28;20290;-64
2023/07/21 05:24:38;;;;;;;2.75;2.15;;;;;;;18.56;89.32;96104.06;5041810;28;20818;-64
2023/07/21 05:27:06;;;;;;;2.85;2.42;;;;;;;18.61;90.01;96117.63;5040957;28;20208;-65
2023/07/21 05:29:33;;;;;;;3.05;2.38;;;;;;;18.60;89.17;96126.69;5040626;28;20641;-67
2023/07/21 05:32:00;;;;;;;2.97;2.38;;;;;;;18.56;88.85;96141.53;5040964;28;21318;-67
2023/07/21 05:34:27;;;;;;;3.33;2.40;;;;;;;18.58;90.37;96147.50;5040958;28;20537;-66
2023/07/21 05:36:53;;;;;;;4.70;2.92;;;;;;;18.55;94.43;96149.78;5041711;28;20200;-66
2023/07/21 05:39:20;;;;;;;3.65;2.45;;;;;;;18.52;91.82;96148.34;5041935;28;20218;-66
2023/07/21 05:41:47;;;;;;;4.55;2.35;;;;;;;18.45;86.58;96158.19;5040987;28;20533;-66
2023/07/21 05:44:14;;;;;;;2.85;2.40;;;;;;;18.49;91.67;96159.44;5041272;28;20230;-67
2023/07/21 05:46:42;;;;;;;3.72;2.30;;;;;;;18.49;92.36;96161.28;5041368;28;20208;-66
2023/07/21 05:49:09;;;;;;;4.00;2.58;;;;;;;18.51;90.81;96160.06;5041267;28;20230;-66
2023/07/21 05:51:37;;;;;;;2.40;2.20;;;;;;;18.52;86.95;96153.69;5041096;28;20654;-65
2023/07/21 05:54:03;;;;;;;2.30;2.10;;;;;;;18.53;87.62;96120.50;5041332;28;20224;-65
2023/07/21 05:56:30;;;;;;;4.82;2.60;;;;;;;18.50;87.42;96109.34;5042152;28;20646;-66
2023/07/21 05:58:57;;;;;;;2.35;2.15;;;;;;;18.50;83.53;96131.59;5041440;28;20211;-65
2023/07/21 06:01:25;;;;;;;2.13;2.03;;;;;;;18.47;90.89;96145.41;5046923;28;20532;-65
2023/07/21 06:03:53;;;;;;;2.78;1.90;;;;;;;18.49;88.92;96142.53;5046912;28;20233;-66
2023/07/21 06:06:23;;;;;;;2.70;2.30;;;;;;;18.45;87.59;96155.50;5041429;28;20215;-66
2023/07/21 06:08:51;;;;;;;2.92;2.35;;;;;;;18.43;92.11;96160.22;5040867;28;20528;-67
2023/07/21 06:11:19;;;;;;;2.70;2.50;;;;;;;18.37;95.04;96161.88;5044332;28;20203;-66
2023/07/21 06:13:46;;;;;;;3.17;2.53;;;;;;;18.33;97.16;96162.47;5045521;28;20269;-65
2023/07/21 06:16:13;;;;;;;4.82;2.50;;;;;;;18.37;98.25;96145.81;5045027;28;20240;-65
2023/07/21 06:18:42;;;;;;;3.58;2.42;;;;;;;18.36;98.73;96141.47;5051404;28;20304;-65
2023/07/21 06:21:11;;;;;;;3.25;2.28;;;;;;;18.41;93.28;96135.50;5050022;28;20242;-66
2023/07/21 06:23:39;;;;;;;3.50;2.75;;;;;;;18.40;92.75;96120.47;5045289;28;20206;-65
2023/07/21 06:26:06;;;;;;;4.38;2.75;;;;;;;18.44;96.72;96120.88;5046753;28;20203;-66
2023/07/21 06:28:32;;;;;;;3.00;2.70;;;;;;;18.39;97.46;96118.81;5044151;28;20266;-65
2023/07/21 06:30:59;;;;;;;4.32;2.60;;;;;;;18.45;99.06;96120.69;5044983;28;20210;-66
2023/07/21 06:33:25;;;;;;;3.50;2.78;;;;;;;18.48;100.00;96133.66;5058492;28;20214;-66
2023/07/21 06:35:54;;;;;;;2.92;2.72;;;;;;;18.54;100.00;96132.88;5056315;28;20207;-68
2023/07/21 06:38:22;;;;;;;4.18;2.50;;;;;;;18.60;100.00;96140.09;5058342;28;20204;-67
2023/07/21 06:40:48;;;;;;;2.53;2.42;;;;;;;18.70;100.00;96137.84;5046744;28;20202;-67
2023/07/21 06:43:15;;;;;;;2.63;2.40;;;;;;;18.81;99.65;96134.53;5045375;28;20210;-69
2023/07/21 06:45:41;;;;;;;2.42;2.22;;;;;;;18.86;96.43;96144.63;5044795;28;21036;-67
2023/07/21 06:48:07;;;;;;;3.83;2.97;;;;;;;18.88;96.51;96146.06;5045071;28;20218;-67
2023/07/21 06:50:38;;;;;;;2.53;2.33;;;;;;;18.96;97.25;96152.25;5044754;28;20203;-66
2023/07/21 06:53:06;;;;;;;3.17;2.35;;;;;;;18.97;88.42;96153.91;5046823;28;20204;-64
2023/07/21 06:55:32;;;;;;;4.13;2.63;;;;;;;19.08;87.91;96159.47;5044944;28;20207;-65
2023/07/21 06:58:00;;;;;;;4.38;2.60;;;;;;;19.15;86.71;96152.25;5047212;28;20230;-66
2023/07/21 07:00:26;;;;;;;2.72;2.53;;;;;;;19.24;86.60;96150.16;5047283;28;21024;-64
2023/07/21 07:02:56;;;;;;;2.63;2.42;;;;;;;19.33;86.62;96140.88;5045595;28;20196;-65
2023/07/21 07:05:22;;;;;;;2.67;2.47;;;;;;;19.44;85.75;96137.59;5044742;28;20223;-65
2023/07/21 07:07:52;;;;;;;2.97;2.50;;;;;;;19.56;84.32;96127.00;5044694;28;20203;-67
2023/07/21 07:10:20;;;;;;;2.38;2.22;;;;;;;19.66;83.31;96125.53;5044897;28;20208;-66
2023/07/21 07:12:50;;;;;;;4.10;2.90;;;;;;;19.75;81.77;96123.44;5043751;28;20199;-67
2023/07/21 07:15:16;;;;;;;3.55;2.60;;;;;;;19.96;80.55;96122.31;5044995;28;20187;-67
2023/07/21 07:17:43;;;;;;;3.00;2.70;;;;;;;20.07;80.92;96127.84;5045747;28;20203;-65
2023/07/21 07:20:12;;;;;;;3.35;2.42;;;;;;;20.22;81.09;96130.25;5046273;28;20207;-66
2023/07/21 07:22:39;;;;;;;2.80;2.60;;;;;;;20.30;80.96;96130.81;5044989;28;20199;-67
2023/07/21 07:25:08;;;;;;;2.50;2.30;;;;;;;20.42;80.69;96132.81;5045554;28;20550;-66
2023/07/21 07:27:49;;;;;;;3.92;2.63;;;;;;;20.43;79.89;96127.25;5045060;28;20210;-67
2023/07/21 07:30:20;;;;;;;2.60;2.40;;;;;;;20.44;80.17;96131.56;5043140;28;20516;-67
2023/07/21 07:32:49;;;;;;;3.55;2.65;;;;;;;20.43;79.27;96124.56;5043730;28;20727;-65
2023/07/21 07:35:16;;;;;;;2.90;2.30;;;;;;;20.43;77.99;96111.13;5044882;28;20207;-66
2023/07/21 07:37:44;;;;;;;2.75;2.55;;;;;;;20.43;78.48;96118.34;5045417;28;20248;-68
2023/07/21 07:40:12;;;;;;;2.80;2.55;;;;;;;20.37;79.85;96125.41;5044844;28;20271;-67
2023/07/21 07:42:40;;;;;;;4.18;2.90;;;;;;;20.32;79.17;96134.13;5047259;28;20593;-68
2023/07/21 07:45:08;;;;;;;2.70;2.50;;;;;;;20.15;85.84;96142.88;5044925;28;20307;-66
2023/07/21 07:47:37;;;;;;;5.18;2.75;;;;;;;20.14;87.06;96142.06;5044080;28;20257;-65
2023/07/21 07:50:06;;;;;;;3.00;2.60;;;;;;;20.09;88.12;96143.72;5042312;28;20298;-67
2023/07/21 07:52:32;;;;;;;4.20;2.97;;;;;;;20.01;87.83;96146.66;5042395;28;20613;-66
2023/07/21 07:54:59;;;;;;;4.00;2.92;;;;;;;20.06;86.05;96165.63;5044246;28;20249;-67
2023/07/21 07:57:26;;;;;;;2.30;2.20;;;;;;;20.07;84.81;96161.91;5041672;28;20261;-65
2023/07/21 07:59:53;;;;;;;3.28;2.72;;;;;;;19.96;83.80;96154.53;5042389;28;20214;-66
2023/07/21 08:02:21;;;;;;;3.50;2.50;;;;;;;20.01;84.23;96163.59;5044908;28;20211;-67
2023/07/21 08:04:49;;;;;;;3.00;2.70;;;;;;;20.10;84.76;96180.25;5043441;28;20231;-66
2023/07/21 08:07:18;;;;;;;2.60;2.40;;;;;;;20.18;85.74;96174.66;5042350;28;20586;-66
2023/07/21 08:09:46;;;;;;;2.25;2.05;;;;;;;20.22;84.93;96181.25;5042755;28;20302;-68
2023/07/21 08:12:12;;;;;;;4.00;2.97;;;;;;;20.20;82.46;96177.94;5043895;28;20211;-66
2023/07/21 08:14:39;;;;;;;2.83;2.60;;;;;;;20.25;82.27;96172.78;5042631;28;20230;-66
2023/07/21 08:17:08;;;;;;;2.90;2.70;;;;;;;20.29;83.27;96171.34;5043218;28;20269;-66
2023/07/21 08:19:38;;;;;;;3.72;2.40;;;;;;;20.10;82.17;96170.34;5042147;28;21372;-67
2023/07/21 08:22:06;;;;;;;2.95;2.75;;;;;;;20.17;83.86;96159.59;5042441;28;20202;-66
2023/07/21 08:24:32;;;;;;;3.00;2.80;;;;;;;20.18;85.90;96147.81;5042384;28;20589;-67
2023/07/21 08:26:59;;;;;;;3.28;2.60;;;;;;;20.23;85.35;96132.69;5042253;28;20805;-66
2023/07/21 08:29:26;;;;;;;2.53;2.40;;;;;;;20.30;88.23;96135.38;5043806;28;20210;-67
2023/07/21 08:31:53;;;;;;;3.35;2.63;;;;;;;20.34;85.86;96121.31;5043131;28;20207;-67
2023/07/21 08:34:19;;;;;;;2.90;2.60;;;;;;;20.48;85.32;96140.84;5041882;28;20204;-66
2023/07/21 08:36:47;;;;;;;6.05;2.30;;;;;;;20.62;83.85;96138.88;5042391;28;20667;-65
2023/07/21 08:39:14;;;;;;;3.47;2.90;;;;;;;20.82;82.93;96132.34;5043406;28;20211;-64
2023/07/21 08:41:47;;;;;;;3.60;3.15;;;;;;;20.98;83.26;96130.13;5045825;28;20211;-65
2023/07/21 08:44:15;;;;;;;2.90;2.70;;;;;;;21.02;82.01;96123.25;5048410;28;20191;-66
2023/07/21 08:46:41;;;;;;;2.80;2.60;;;;;;;21.01;82.13;96111.69;5057517;28;20218;-70
2023/07/21 08:49:08;;;;;;;3.63;2.90;;;;;;;21.14;83.21;96103.53;5061488;28;20208;-68
2023/07/21 08:51:36;;;;;;;2.47;2.38;;;;;;;21.23;82.84;96099.50;5052350;28;20195;-68
2023/07/21 08:54:06;;;;;;;2.90;2.70;;;;;;;21.36;82.72;96108.50;5048247;28;20208;-66
2023/07/21 08:56:33;;;;;;;2.97;2.78;;;;;;;21.50;81.83;96121.59;5046757;28;20196;-67
2023/07/21 08:59:00;;;;;;;3.40;2.80;;;;;;;21.60;81.17;96121.88;5043277;28;20230;-66
2023/07/21 09:01:27;;;;;;;4.68;2.50;;;;;;;21.68;81.85;96118.06;5043634;28;20215;-69
2023/07/21 09:03:53;;;;;;;3.28;2.72;;;;;;;21.45;82.34;96128.66;5043366;28;20199;-69
2023/07/21 09:06:20;;;;;;;3.20;2.58;;;;;;;21.41;85.30;96144.44;5042155;28;20227;-68
2023/07/21 09:08:47;;;;;;;3.00;2.80;;;;;;;21.45;86.83;96148.31;5043885;28;20270;-66
2023/07/21 09:11:16;;;;;;;4.45;3.47;;;;;;;21.37;88.51;96150.47;5042616;28;20234;-67
2023/07/21 09:13:51;;;;;;;4.10;2.70;;;;;;;21.29;90.06;96165.06;5042933;28;20224;-67
2023/07/21 09:16:19;;;;;;;4.18;3.15;;;;;;;21.03;89.82;96160.69;5041979;28;20222;-69
2023/07/21 09:18:52;;;;;;;3.65;3.35;;;;;;;20.88;91.90;96156.66;5042388;28;20203;-66
2023/07/21 09:21:20;;;;;;;3.22;2.92;;;;;;;20.75;95.21;96165.66;5043017;28;20321;-67
2023/07/21 09:23:46;;;;;;;3.15;2.90;;;;;;;20.77;99.00;96164.41;5042623;28;20293;-65
2023/07/21 09:26:16;;;;;;;3.25;2.95;;;;;;;20.63;98.36;96157.47;5043549;28;20231;-67
2023/07/21 09:28:46;;;;;;;2.80;2.60;;;;;;;20.56;100.00;96164.75;5042392;28;20215;-64
2023/07/21 09:31:13;;;;;;;3.05;2.85;;;;;;;20.53;100.00;96151.75;5041147;28;20221;-65
2023/07/21 09:33:43;;;;;;;3.08;2.80;;;;;;;20.49;100.00;96145.19;5045359;28;20208;-65
2023/07/21 09:36:11;;;;;;;3.40;3.03;;;;;;;20.51;100.00;96147.66;5055834;28;20188;-65
2023/07/21 09:38:39;;;;;;;4.10;3.08;;;;;;;20.58;100.00;96149.22;5051512;28;20207;-65
2023/07/21 09:41:09;;;;;;;3.53;3.28;;;;;;;20.65;100.00;96154.59;5055306;28;20204;-64
2023/07/21 09:43:40;;;;;;;3.30;3.00;;;;;;;20.78;100.00;96160.69;5054084;28;20236;-65
2023/07/21 09:46:08;;;;;;;4.70;2.63;;;;;;;20.83;100.00;96163.53;5057294;28;20207;-64
2023/07/21 09:48:38;;;;;;;3.38;3.17;;;;;;;20.61;100.00;96159.56;5059851;28;20184;-62
2023/07/21 09:51:07;;;;;;;3.20;3.00;;;;;;;20.55;100.00;96173.84;5063009;28;20183;-63
2023/07/21 09:53:38;;;;;;;3.92;3.10;;;;;;;20.50;100.00;96178.22;5069206;28;20191;-67
2023/07/21 09:56:06;;;;;;;4.65;3.20;;;;;;;20.38;100.00;96201.44;5067201;28;20211;-65
2023/07/21 09:58:39;;;;;;;4.07;3.10;;;;;;;20.28;100.00;96196.53;5067055;28;20242;-64
2023/07/21 10:01:12;;;;;;;3.53;3.22;;;;;;;20.21;100.00;96215.34;5064595;28;20618;-64
2023/07/21 10:03:42;;;;;;;3.40;3.10;;;;;;;20.20;100.00;96213.69;5045789;28;20196;-64
2023/07/21 10:06:11;;;;;;;3.95;3.17;;;;;;;20.21;100.00;96227.94;5045436;28;20643;-65
2023/07/21 10:08:38;;;;;;;3.08;2.75;;;;;;;20.16;100.00;96211.63;5045012;28;20215;-65
2023/07/21 10:11:07;;;;;;;3.45;3.00;;;;;;;20.11;100.00;96214.13;5046440;28;20206;-65
2023/07/21 10:13:40;;;;;;;3.60;3.10;;;;;;;19.88;100.00;96212.75;5044360;28;20343;-64
2023/07/21 10:16:08;;;;;;;3.75;3.25;;;;;;;19.84;100.00;96210.69;5045460;28;20238;-66
2023/07/21 10:18:34;;;;;;;3.00;2.80;;;;;;;19.79;100.00;96210.53;5045556;28;20291;-65
2023/07/21 10:21:03;;;;;;;3.38;3.17;;;;;;;19.78;100.00;96217.75;5045722;28;20214;-67
2023/07/21 10:23:34;;;;;;;4.25;3.47;;;;;;;19.80;100.00;96225.59;5044439;28;20816;-68
2023/07/21 10:26:02;;;;;;;5.97;3.83;;;;;;;19.77;100.00;96236.72;5045840;28;20207;-65
2023/07/21 10:28:35;;;;;;;3.67;3.38;;;;;;;19.67;100.00;96250.59;5044995;28;20211;-67
2023/07/21 10:31:38;;;;;;;3.60;3.30;;;;;;;19.76;100.00;96243.97;5046285;28;20625;-64
2023/07/21 10:34:08;;;;;;;4.35;3.83;;;;;;;19.81;100.00;96243.31;5044745;28;20195;-65
2023/07/21 10:36:44;;;;;;;4.30;3.40;;;;;;;19.86;100.00;96235.50;5044408;28;20214;-64
2023/07/21 10:39:11;;;;;;;4.43;3.45;;;;;;;19.96;100.00;96245.78;5043976;28;20674;-66
2023/07/21 10:41:40;;;;;;;4.90;3.88;;;;;;;20.21;100.00;96260.97;5044277;28;20199;-64
2023/07/21 10:44:07;;;;;;;4.07;3.03;;;;;;;20.50;100.00;96265.03;5043751;28;20211;-64
2023/07/21 10:46:39;;;;;;;4.90;3.20;;;;;;;21.00;100.00;96254.41;5045109;28;20262;-62
2023/07/21 10:49:06;;;;;;;4.65;3.30;;;;;;;21.25;100.00;96247.22;5044312;28;20212;-64
2023/07/21 10:51:32;;;;;;;4.35;3.95;;;;;;;21.30;100.00;96250.06;5044317;28;20203;-66
2023/07/21 10:53:59;;;;;;;4.53;4.22;;;;;;;21.28;100.00;96252.16;5044497;28;20207;-66
2023/07/21 10:56:27;;;;;;;4.50;4.10;;;;;;;21.59;100.00;96252.09;5043705;28;20245;-65
2023/07/21 10:58:55;;;;;;;4.47;4.00;;;;;;;22.01;100.00;96253.13;5056732;28;20199;-68
2023/07/21 11:01:25;;;;;;;4.40;4.10;;;;;;;22.30;100.00;96240.78;5066491;28;20203;-69
2023/07/21 11:03:54;;;;;;;4.97;4.47;;;;;;;22.68;100.00;96244.06;5067612;28;20218;-68
2023/07/21 11:06:22;;;;;;;4.03;3.72;;;;;;;22.92;100.00;96255.72;5058558;28;20301;-67
2023/07/21 11:08:50;;;;;;;5.43;3.70;;;;;;;22.88;95.30;96256.44;5048193;28;20204;-66
2023/07/21 11:11:19;;;;;;;4.45;3.10;;;;;;;22.97;97.64;96249.66;5047346;28;20382;-66
2023/07/21 11:13:47;;;;;;;4.38;4.05;;;;;;;22.85;96.71;96256.91;5045067;28;20222;-64
2023/07/21 11:16:15;;;;;;;4.45;3.75;;;;;;;22.80;94.97;96246.81;5046717;28;20227;-66
2023/07/21 11:18:42;;;;;;;3.83;3.50;;;;;;;22.80;95.72;96247.63;5045404;28;20200;-64
2023/07/21 11:21:10;;;;;;;4.00;3.42;;;;;;;22.73;94.10;96249.59;5039008;28;20586;-65
2023/07/21 11:23:37;;;;;;;3.15;2.95;;;;;;;22.62;91.20;96236.84;5045414;28;20203;-65
2023/07/21 11:26:06;;;;;;;3.55;3.03;;;;;;;22.70;89.93;96241.97;5043142;28;20319;-64
2023/07/21 11:28:33;;;;;;;3.15;2.90;;;;;;;22.86;91.10;96239.66;5043162;28;20290;-66
2023/07/21 11:31:00;;;;;;;3.00;2.80;;;;;;;23.13;91.27;96227.44;5043615;28;20204;-65
2023/07/21 11:33:43;;;;;;;2.67;2.50;;;;;;;23.47;90.27;96221.28;5042930;28;20226;-67
2023/07/21 11:36:16;;;;;;;4.25;2.75;;;;;;;23.73;85.74;96218.13;5043540;28;20191;-65